11:27
Airports
Links
Donate
Help keep this website running!
PayPal
Bitcoin
METAR
KDTW 201053Z 20005KT 9SM SCT035 BKN065 OVC160 11/10 A2996 RMK AO2 RAE50 SLP148 P0003 T01060100 $
Current Weather Conditions at KDTW
VFR 10:53:00 20-02-18
Automated station
Altimeter:29.96 hg
Temp:10.6°c 50°f
Dew point:10.0°c 50°f
Wind:5 knots, 5.8 mph, 3 m/s, from 200°
Visibility:9.0 statute miles
16000(OVC) Overcast
6500(BKN) Broken
3500(SCT) Scattered
Past METAR reports
VFR 10:42:00 20-02-18
Automated station
Altimeter:29.96 hg
Temp:10.0°c 50°f
Dew point:10.0°c 50°f
Wind:4 knots, 4.6 mph, 2 m/s, from 190°
Visibility:8.0 statute miles
7500(OVC) Overcast
3500(BKN) Broken
300(SCT) Scattered
KDTW 201042Z 19004KT 8SM -RA SCT003 BKN035 OVC075 10/10 A2996 RMK AO2 P0003 T01000100 $
MVFR 10:27:00 20-02-18
Automated station
Altimeter:29.96 hg
Temp:10.6°c 50°f
Dew point:10.6°c 50°f
Wind:7 knots, 8.1 mph, 4 m/s, from 180°
Visibility:6.0 statute miles
6000(OVC) Overcast
2500(BKN) Broken
300(SCT) Scattered
KDTW 201027Z 18007KT 6SM -RA BR SCT003 BKN025 OVC060 11/11 A2996 RMK AO2 P0003 T01060106 $
IFR 10:07:00 20-02-18
Automated station
Altimeter:29.97 hg
Temp:11.7°c 52°f
Dew point:11.1°c 52°f
Wind:7 knots, 8.1 mph, 4 m/s, from 170°
Visibility:1.0 statute miles
1200(OVC) Overcast
300(SCT) Scattered
KDTW 201007Z 17007KT 1SM R03R/P6000FT -RA BR SCT003 OVC012 12/11 A2997 RMK AO2 TWR VIS 1 1/2 P0003 T01170111 $
LIFR 09:53:00 20-02-18
Automated station
Altimeter:29.97 hg
Temp:12.2°c 54°f
Dew point:11.7°c 52°f
Wind:7 knots, 8.1 mph, 4 m/s, from 170°
Visibility:0.75 statute miles
1200(OVC) Overcast
300(SCT) Scattered
KDTW 200953Z 17007KT 3/4SM R03R/4000VP6000FT RA BR SCT003 OVC012 12/12 A2997 RMK AO2 TWR VIS 1 1/2 SLP150 P0023 T01220117 $
LIFR 09:37:00 20-02-18
Automated station
Altimeter:29.97 hg
Temp:12.8°c 54°f
Dew point:12.8°c 54°f
Wind:4 knots, 4.6 mph, 2 m/s, from 160°
Visibility:0.5 statute miles
1200(OVC) Overcast
300(SCT) Scattered
KDTW 200937Z 16004KT 1/2SM R03R/3500VP6000FT RA BR SCT003 OVC012 13/13 A2997 RMK AO2 SFC VIS 3/4 P0022 T01280128 $
LIFR 09:01:00 20-02-18
Automated station
Altimeter:29.97 hg
Temp:12.2°c 54°f
Dew point:12.2°c 54°f
Wind:0 knots, 0 mph, 0 m/s,
Variable direction
Visibility:0.25 statute miles
0(OVX)
KDTW 200901Z 00000KT 1/4SM R03R/3000V4000FT +RA FG VV003 12/12 A2997 RMK AO2 TWR VIS 1/2 P0007 T01220122 $
TAF
KDTW 201120Z 2012/2118 19011KT 6SM -RA BR BKN025 OVC045 TEMPO 2012/2014 1 1/2SM RA BR BKN015 OVC025 FM201600 21015G22KT 6SM -RA BR SCT015 OVC025 FM210300 19012KT 4SM RA BR OVC015 FM211100 31010KT 6SM -RA BR BKN025 OVC035
Forecast at KDTW
12:00 20-02-18 to 16:00 20-02-18
-RA BR
Wind:11 Knots from 190°
Visibility:6.0 statute miles
2500BKN Broken
4500OVC Overcast
TEMPO 12:00 20-02-18 to 14:00 20-02-18
RA BR
Visibility:1.5 statute miles
1500BKN Broken
2500OVC Overcast
FM 16:00 20-02-18 to 03:00 21-02-18
-RA BR
Wind:15 Knots from 210°
Visibility:6.0 statute miles
1500SCT Scattered
2500OVC Overcast
FM 03:00 21-02-18 to 11:00 21-02-18
RA BR
Wind:12 Knots from 190°
Visibility:4.0 statute miles
1500OVC Overcast
FM 11:00 21-02-18 to 18:00 21-02-18
-RA BR
Wind:10 Knots from 310°
Visibility:6.0 statute miles
2500BKN Broken
3500OVC Overcast